createdAt,value
2019-05-26T00:00:34.812Z,68.89
2019-05-26T00:05:40.761Z,68.36
2019-05-26T00:10:46.526Z,68.31
2019-05-26T00:15:52.604Z,68.27
2019-05-26T00:20:58.779Z,68.35
2019-05-26T00:26:04.749Z,68.27
2019-05-26T00:31:11.842Z,68.05
2019-05-26T00:36:17.916Z,67.79
2019-05-26T00:41:23.887Z,67.38
2019-05-26T00:46:29.755Z,67.36
2019-05-26T00:51:35.629Z,68.64
2019-05-26T00:56:41.496Z,68.01
2019-05-26T01:01:47.465Z,67.14
2019-05-26T01:06:56.711Z,66.24
2019-05-26T01:12:01.737Z,66.38
2019-05-26T01:17:07.562Z,66.27
2019-05-26T01:22:13.599Z,66.28
2019-05-26T01:27:19.649Z,64.85
2019-05-26T01:32:25.562Z,65.23
2019-05-26T01:37:31.748Z,65.86
2019-05-26T01:42:37.789Z,67.06
2019-05-26T01:47:43.724Z,66.39
2019-05-26T01:52:49.832Z,64.70
2019-05-26T01:57:55.704Z,64.91
2019-05-26T02:03:01.672Z,65.51
2019-05-26T02:08:12.010Z,65.93
2019-05-26T02:13:18.124Z,66.84
2019-05-26T02:18:24.296Z,66.92
2019-05-26T02:23:30.170Z,67.90
2019-05-26T02:28:36.032Z,68.82
2019-05-26T02:33:41.802Z,68.48
2019-05-26T02:39:00.944Z,68.84
2019-05-26T02:43:55.304Z,69.02
2019-05-26T02:49:01.467Z,69.92
2019-05-26T02:54:07.553Z,70.25
2019-05-26T02:59:13.524Z,70.07
2019-05-26T03:04:19.571Z,70.63
2019-05-26T03:09:26.976Z,70.71
2019-05-26T03:14:35.710Z,70.32
2019-05-26T03:19:43.093Z,71.13
2019-05-26T03:24:54.494Z,71.28
2019-05-26T03:30:00.489Z,71.53
2019-05-26T03:35:10.961Z,71.19
2019-05-26T03:40:17.139Z,71.11
2019-05-26T03:45:42.254Z,71.53
2019-05-26T03:50:48.126Z,71.61
2019-05-26T03:55:53.995Z,71.51
2019-05-26T04:00:59.864Z,71.89
2019-05-26T04:06:06.255Z,71.53
2019-05-26T04:11:12.503Z,71.00
2019-05-26T04:16:18.391Z,71.22
2019-05-26T04:21:24.273Z,70.96
2019-05-26T04:26:30.226Z,70.94
2019-05-26T04:31:36.502Z,70.43
2019-05-26T04:36:42.590Z,70.50
2019-05-26T04:41:48.778Z,70.94
2019-05-26T04:46:54.840Z,70.82
2019-05-26T04:52:01.112Z,70.05
2019-05-26T04:57:07.187Z,70.06
2019-05-26T05:02:13.253Z,69.43
2019-05-26T05:07:19.390Z,70.25
2019-05-26T05:12:25.512Z,69.24
2019-05-26T05:17:31.368Z,69.11
2019-05-26T05:22:37.443Z,67.80
2019-05-26T05:27:43.439Z,67.71
2019-05-26T05:32:49.692Z,67.30
2019-05-26T05:37:55.673Z,67.32
2019-05-26T05:43:02.184Z,66.90
2019-05-26T05:48:08.551Z,66.27
2019-05-26T05:53:14.561Z,63.33
2019-05-26T05:58:22.007Z,61.75
2019-05-26T06:03:27.974Z,60.41
2019-05-26T06:08:33.945Z,61.38
2019-05-26T06:13:40.849Z,60.71
2019-05-26T06:18:47.330Z,61.67
2019-05-26T06:23:53.293Z,59.91
2019-05-26T06:28:59.272Z,61.60
2019-05-26T06:34:05.599Z,59.75
2019-05-26T06:39:11.512Z,60.57
2019-05-26T06:44:18.032Z,62.56
2019-05-26T06:49:24.443Z,61.64
2019-05-26T06:54:30.652Z,59.64
2019-05-26T06:59:36.625Z,58.43
2019-05-26T07:04:43.110Z,57.75
2019-05-26T07:09:49.443Z,57.17
2019-05-26T07:14:56.490Z,59.51
2019-05-26T07:20:02.791Z,59.04
2019-05-26T07:25:09.556Z,58.70
2019-05-26T07:30:16.809Z,60.86
2019-05-26T07:35:22.968Z,61.09
2019-05-26T07:40:29.412Z,61.24
2019-05-26T07:45:35.313Z,58.61
2019-05-26T07:50:41.258Z,60.81
2019-05-26T07:55:47.422Z,60.81
2019-05-26T08:00:53.501Z,60.75
2019-05-26T08:05:59.471Z,61.74
2019-05-26T08:11:05.968Z,58.68
2019-05-26T08:16:11.982Z,57.18
2019-05-26T08:21:18.101Z,60.39
2019-05-26T08:26:24.308Z,58.52
2019-05-26T08:31:30.517Z,57.61
2019-05-26T08:36:36.927Z,55.21
2019-05-26T08:41:43.005Z,57.61
2019-05-26T08:46:49.111Z,58.39
2019-05-26T08:51:55.463Z,55.80
2019-05-26T08:57:01.531Z,55.85
2019-05-26T09:02:07.603Z,55.85
2019-05-26T09:07:13.692Z,55.50
2019-05-26T09:12:19.970Z,55.81
2019-05-26T09:17:26.053Z,56.24
2019-05-26T09:22:32.098Z,56.44
2019-05-26T09:27:38.351Z,54.21
2019-05-26T09:32:44.382Z,54.52
2019-05-26T09:37:51.349Z,54.54
2019-05-26T09:42:57.416Z,55.81
2019-05-26T09:48:03.512Z,53.46
2019-05-26T09:53:09.466Z,50.63
2019-05-26T09:58:15.437Z,52.74
2019-05-26T10:03:21.411Z,52.69
2019-05-26T10:08:27.480Z,51.91
2019-05-26T10:13:33.652Z,52.25
2019-05-26T10:18:40.509Z,54.05
2019-05-26T10:23:46.742Z,51.12
2019-05-26T10:28:52.791Z,53.36
2019-05-26T10:33:58.822Z,52.21
2019-05-26T10:39:06.892Z,52.43
2019-05-26T10:44:12.957Z,53.23
2019-05-26T10:49:19.195Z,52.02
2019-05-26T10:54:25.424Z,52.38
2019-05-26T10:59:31.591Z,51.84
2019-05-26T11:04:37.659Z,52.41
2019-05-26T11:09:43.845Z,50.97
2019-05-26T11:14:49.852Z,51.56
2019-05-26T11:19:55.887Z,51.06
2019-05-26T11:25:02.337Z,51.22
2019-05-26T11:30:11.743Z,50.79
2019-05-26T11:35:19.328Z,51.07
2019-05-26T11:40:25.806Z,50.58
2019-05-26T11:45:32.417Z,50.58
2019-05-26T11:50:38.486Z,50.69
2019-05-26T11:55:45.255Z,50.21
2019-05-26T12:00:51.128Z,49.53
2019-05-26T12:05:57.091Z,49.72
2019-05-26T12:11:03.402Z,48.95
2019-05-26T12:16:09.465Z,49.60
2019-05-26T12:21:15.430Z,50.70
2019-05-26T12:26:21.595Z,49.80
2019-05-26T12:31:27.567Z,50.13
2019-05-26T12:36:38.907Z,52.11
2019-05-26T12:41:42.581Z,51.34
2019-05-26T12:46:48.649Z,49.89
2019-05-26T12:51:55.068Z,50.86
2019-05-26T12:57:01.311Z,48.14
2019-05-26T13:02:07.608Z,49.00
2019-05-26T13:07:13.460Z,49.64
2019-05-26T13:12:19.686Z,50.66
2019-05-26T13:17:25.657Z,49.42
2019-05-26T13:22:31.690Z,49.30
2019-05-26T13:27:37.546Z,50.90
2019-05-26T13:32:43.513Z,48.90
2019-05-26T13:37:49.623Z,50.48
2019-05-26T13:42:55.686Z,50.63
2019-05-26T13:48:02.040Z,49.72
2019-05-26T13:53:08.134Z,49.01
2019-05-26T13:58:14.282Z,48.70
2019-05-26T14:03:20.259Z,50.36
2019-05-26T14:08:26.255Z,49.88
2019-05-26T14:13:32.226Z,48.72
2019-05-26T14:18:38.657Z,48.24
2019-05-26T14:23:44.755Z,47.68
2019-05-26T14:28:50.826Z,50.15
2019-05-26T14:33:56.701Z,47.93
2019-05-26T14:39:02.693Z,49.70
2019-05-26T14:44:08.941Z,50.07
2019-05-26T14:49:15.025Z,49.49
2019-05-26T14:54:21.089Z,49.31
2019-05-26T14:59:27.298Z,50.04
2019-05-26T15:04:33.339Z,49.29
2019-05-26T15:09:39.310Z,50.10
2019-05-26T15:14:45.382Z,50.63
2019-05-26T15:19:51.466Z,49.69
2019-05-26T15:24:57.428Z,49.09
2019-05-26T15:30:04.734Z,49.05
2019-05-26T15:35:12.113Z,50.79
2019-05-26T15:40:19.249Z,50.84
2019-05-26T15:45:25.347Z,49.74
2019-05-26T15:50:31.589Z,49.63
2019-05-26T15:55:39.866Z,48.78
2019-05-26T16:00:53.417Z,49.25
2019-05-26T16:06:03.419Z,49.11
2019-05-26T16:11:09.864Z,49.71
2019-05-26T16:16:16.192Z,50.42
2019-05-26T16:21:27.968Z,50.76
2019-05-26T16:26:31.093Z,49.88
2019-05-26T16:31:37.065Z,50.71
2019-05-26T16:36:43.459Z,51.93
2019-05-26T16:41:49.646Z,52.44
2019-05-26T16:46:57.070Z,52.42
2019-05-26T16:52:03.304Z,51.73
2019-05-26T16:57:09.689Z,52.23
2019-05-26T17:02:17.631Z,51.65
2019-05-26T17:07:28.274Z,51.87
2019-05-26T17:12:34.365Z,51.57
2019-05-26T17:17:40.338Z,52.57
2019-05-26T17:22:46.867Z,53.27
2019-05-26T17:27:52.749Z,53.01
2019-05-26T17:32:58.855Z,53.20
2019-05-26T17:38:05.257Z,53.02
2019-05-26T17:43:11.310Z,52.91
2019-05-26T17:48:17.345Z,52.25
2019-05-26T17:53:23.251Z,52.33
2019-05-26T17:58:29.194Z,52.21
2019-05-26T18:03:35.707Z,52.21
2019-05-26T18:08:41.757Z,52.37
2019-05-26T18:13:47.873Z,52.99
2019-05-26T18:18:53.928Z,53.56
2019-05-26T18:24:00.042Z,53.87
2019-05-26T18:29:06.373Z,53.82
2019-05-26T18:34:12.453Z,54.68
2019-05-26T18:39:18.423Z,54.95
2019-05-26T18:44:24.408Z,55.19
2019-05-26T18:49:30.900Z,55.29
2019-05-26T18:54:36.961Z,55.48
2019-05-26T18:59:43.022Z,55.09
2019-05-26T19:04:48.998Z,55.80
2019-05-26T19:09:54.881Z,55.57
2019-05-26T19:15:00.728Z,55.94
2019-05-26T19:20:16.021Z,56.11
2019-05-26T19:25:17.895Z,57.00
2019-05-26T19:30:23.961Z,56.60
2019-05-26T19:35:29.944Z,56.57
2019-05-26T19:40:36.013Z,56.64
2019-05-26T19:45:41.979Z,56.68
2019-05-26T19:50:47.891Z,57.43
2019-05-26T19:55:53.924Z,57.40
2019-05-26T20:01:00.139Z,57.98
2019-05-26T20:06:06.656Z,58.75
2019-05-26T20:11:12.760Z,58.64
2019-05-26T20:16:18.824Z,58.86
2019-05-26T20:21:24.801Z,59.40
2019-05-26T20:26:30.772Z,59.29
2019-05-26T20:31:36.738Z,59.92
2019-05-26T20:36:42.718Z,59.87
2019-05-26T20:41:48.683Z,60.19
2019-05-26T20:46:54.657Z,60.84
2019-05-26T20:52:00.619Z,60.85
2019-05-26T20:57:06.596Z,60.77
2019-05-26T21:02:12.563Z,60.88
2019-05-26T21:07:18.982Z,60.65
2019-05-26T21:12:24.811Z,60.21
2019-05-26T21:17:30.902Z,60.21
2019-05-26T21:22:36.865Z,59.57
2019-05-26T21:27:42.723Z,59.82
2019-05-26T21:32:48.700Z,60.02
2019-05-26T21:37:54.871Z,59.98
2019-05-26T21:43:00.637Z,60.62
2019-05-26T21:48:06.811Z,60.85
2019-05-26T21:53:12.697Z,61.24
2019-05-26T21:58:18.555Z,61.93
2019-05-26T22:03:24.519Z,61.68
2019-05-26T22:08:30.321Z,61.63
2019-05-26T22:13:36.668Z,61.78
2019-05-26T22:18:42.537Z,61.83
2019-05-26T22:23:48.405Z,62.10
2019-05-26T22:28:54.380Z,62.45
2019-05-26T22:34:00.175Z,62.77
2019-05-26T22:39:07.780Z,63.12
2019-05-26T22:44:13.722Z,62.64
2019-05-26T22:49:19.594Z,62.33
2019-05-26T22:54:25.455Z,62.15
2019-05-26T22:59:31.326Z,61.91
2019-05-26T23:04:37.230Z,61.96
2019-05-26T23:09:42.962Z,61.63
2019-05-26T23:14:48.829Z,61.17
2019-05-26T23:19:54.701Z,60.67
2019-05-26T23:25:00.566Z,60.86
2019-05-26T23:30:08.690Z,60.69
2019-05-26T23:35:15.274Z,60.93
2019-05-26T23:40:21.147Z,60.45
2019-05-26T23:45:27.117Z,60.94
2019-05-26T23:50:32.986Z,61.42
2019-05-26T23:55:38.897Z,60.79
